Aviation Digital Data Service (ADDS)

Output produced by TAFs form (0143 UTC 20 January 2017)
found at http://aviationweather.gov/adds/tafs/
 
KEWR 200051Z 29006KT 10SM BKN034 BKN250 06/00 A3005 RMK AO2 SLP174 T00610000
KEWR 192339Z 2000/2106 31009KT P6SM BKN035 
     FM200300 36004KT P6SM SCT025 SCT250 
     FM201500 09004KT P6SM SCT020 BKN200 
     FM201800 14006KT P6SM BKN020 BKN200 
     FM202100 13006KT 4SM -RA OVC015 
     FM210100 13008KT 1 1/2SM RA BR OVC010